createdAt,value
2022-11-16T00:01:25.840Z,100234.69
2022-11-16T00:04:28.863Z,100233.72
2022-11-16T00:07:32.596Z,100236.44
2022-11-16T00:10:35.490Z,100232.16
2022-11-16T00:13:39.337Z,100235.19
2022-11-16T00:16:45.303Z,100235.03
2022-11-16T00:19:48.965Z,100227.16
2022-11-16T00:22:51.910Z,100231.16
2022-11-16T00:25:54.479Z,100232.78
2022-11-16T00:28:57.992Z,100241.34
2022-11-16T00:32:00.981Z,100239.34
2022-11-16T00:35:04.225Z,100241.72
2022-11-16T00:38:08.040Z,100244.19
2022-11-16T00:41:11.733Z,100245.88
2022-11-16T00:44:16.103Z,100241.13
2022-11-16T00:47:19.013Z,100240.91
2022-11-16T00:50:22.961Z,100241.94
2022-11-16T00:53:26.213Z,100246.41
2022-11-16T00:56:30.119Z,100244.25
2022-11-16T00:59:32.944Z,100228.75
2022-11-16T01:02:36.867Z,100226.91
2022-11-16T01:05:40.543Z,100228.69
2022-11-16T01:08:44.555Z,100235.19
2022-11-16T01:12:06.851Z,100238.19
2022-11-16T01:15:11.054Z,100233.84
2022-11-16T01:18:13.882Z,100233.41
2022-11-16T01:21:16.996Z,100230.56
2022-11-16T01:24:23.401Z,100234.38
2022-11-16T01:27:26.183Z,100233.81
2022-11-16T01:30:29.662Z,100237.34
2022-11-16T01:33:40.222Z,100243.00
2022-11-16T01:36:48.420Z,100240.53
2022-11-16T01:39:52.569Z,100233.41
2022-11-16T01:42:58.495Z,100226.16
2022-11-16T01:46:01.393Z,100230.84
2022-11-16T01:49:15.549Z,100228.41
2022-11-16T01:52:22.985Z,100227.38
2022-11-16T01:55:27.972Z,100231.81
2022-11-16T01:58:42.917Z,100232.03
2022-11-16T02:01:57.621Z,100229.34
2022-11-16T02:05:01.849Z,100229.69
2022-11-16T02:09:08.474Z,100225.81
2022-11-16T02:12:44.322Z,100230.06
2022-11-16T02:15:53.848Z,100223.31
2022-11-16T02:19:27.588Z,100224.91
2022-11-16T02:22:45.247Z,100216.78
2022-11-16T02:26:15.656Z,100223.63
2022-11-16T02:29:35.093Z,100221.78
2022-11-16T02:32:41.197Z,100207.44
2022-11-16T02:35:47.753Z,100203.06
2022-11-16T02:38:55.766Z,100185.16
2022-11-16T02:42:00.833Z,100187.91
2022-11-16T02:45:07.478Z,100186.31
2022-11-16T02:48:16.058Z,100180.38
2022-11-16T02:51:19.791Z,100184.69
2022-11-16T02:54:24.743Z,100184.75
2022-11-16T02:57:33.085Z,100185.28
2022-11-16T03:00:43.686Z,100192.59
2022-11-16T03:04:04.102Z,100182.84
2022-11-16T03:07:09.695Z,100174.47
2022-11-16T03:10:33.502Z,100178.69
2022-11-16T03:13:41.573Z,100185.53
2022-11-16T03:16:49.829Z,100171.75
2022-11-16T03:20:03.177Z,100179.69
2022-11-16T03:23:11.258Z,100177.88
2022-11-16T03:26:20.206Z,100167.31
2022-11-16T03:29:41.205Z,100167.06
2022-11-16T03:32:55.721Z,100162.94
2022-11-16T03:36:35.019Z,100166.63
2022-11-16T03:39:39.988Z,100155.91
2022-11-16T03:42:44.096Z,100154.03
2022-11-16T03:45:47.693Z,100150.47
2022-11-16T03:48:58.399Z,100160.63
2022-11-16T03:52:04.630Z,100155.09
2022-11-16T03:55:10.571Z,100154.41
2022-11-16T03:58:14.856Z,100161.88
2022-11-16T04:01:18.684Z,100162.56
2022-11-16T04:04:41.426Z,100151.19
2022-11-16T04:08:04.119Z,100152.50
2022-11-16T04:11:32.605Z,100140.25
2022-11-16T04:14:54.102Z,100146.81
2022-11-16T04:18:17.400Z,100138.72
2022-11-16T04:21:43.797Z,100132.75
2022-11-16T04:24:52.080Z,100133.84
2022-11-16T04:28:14.066Z,100142.00
2022-11-16T04:31:39.724Z,100135.72
2022-11-16T04:35:05.476Z,100126.78
2022-11-16T04:38:15.465Z,100117.41
2022-11-16T04:41:38.612Z,100133.28
2022-11-16T04:45:04.858Z,100127.53
2022-11-16T04:48:14.362Z,100131.50
2022-11-16T04:51:17.440Z,100123.63
2022-11-16T04:54:20.438Z,100128.03
2022-11-16T04:57:25.304Z,100119.78
2022-11-16T05:00:30.513Z,100129.19
2022-11-16T05:03:33.245Z,100134.91
2022-11-16T05:06:37.075Z,100127.72
2022-11-16T05:09:47.112Z,100134.94
2022-11-16T05:12:50.524Z,100145.66
2022-11-16T05:15:53.368Z,100145.16
2022-11-16T05:19:14.864Z,100130.16
2022-11-16T05:22:22.358Z,100140.25
2022-11-16T05:25:26.376Z,100143.41
2022-11-16T05:28:29.062Z,100145.16
2022-11-16T05:31:35.149Z,100143.03
2022-11-16T05:34:41.835Z,100150.59
2022-11-16T05:37:46.024Z,100148.13
2022-11-16T05:40:58.670Z,100133.72
2022-11-16T05:44:01.338Z,100153.03
2022-11-16T05:47:04.409Z,100153.56
2022-11-16T05:50:08.620Z,100151.88
2022-11-16T05:53:16.627Z,100153.50
2022-11-16T05:56:19.295Z,100160.53
2022-11-16T05:59:25.692Z,100140.56
2022-11-16T06:02:33.421Z,100153.00
2022-11-16T06:05:40.530Z,100130.59
2022-11-16T06:08:44.862Z,100153.44
2022-11-16T06:11:53.340Z,100150.50
2022-11-16T06:14:56.623Z,100146.97
2022-11-16T06:17:59.576Z,100149.38
2022-11-16T06:21:01.954Z,100153.19
2022-11-16T06:24:09.158Z,100139.91
2022-11-16T06:27:12.023Z,100138.28
2022-11-16T06:30:15.746Z,100132.56
2022-11-16T06:33:18.945Z,100145.41
2022-11-16T06:36:24.189Z,100142.88
2022-11-16T06:39:29.181Z,100140.97
2022-11-16T06:42:32.274Z,100138.34
2022-11-16T06:45:36.524Z,100152.22
2022-11-16T06:48:40.915Z,100153.56
2022-11-16T06:51:47.286Z,100151.13
2022-11-16T06:54:50.456Z,100151.88
2022-11-16T06:57:53.681Z,100155.69
2022-11-16T07:00:59.970Z,100147.16
2022-11-16T07:04:02.808Z,100158.38
2022-11-16T07:07:09.131Z,100157.75
2022-11-16T07:10:14.680Z,100159.97
2022-11-16T07:13:20.393Z,100152.81
2022-11-16T07:16:23.522Z,100168.75
2022-11-16T07:19:34.054Z,100157.63
2022-11-16T07:22:38.843Z,100157.38
2022-11-16T07:25:42.237Z,100155.09
2022-11-16T07:28:48.586Z,100150.09
2022-11-16T07:32:03.490Z,100146.91
2022-11-16T07:35:30.330Z,100145.91
2022-11-16T07:38:33.706Z,100143.84
2022-11-16T07:41:42.701Z,100144.84
2022-11-16T07:44:55.210Z,100142.88
2022-11-16T07:48:00.232Z,100143.19
2022-11-16T07:51:23.420Z,100148.97
2022-11-16T07:54:43.629Z,100149.69
2022-11-16T07:57:51.968Z,100145.34
2022-11-16T08:00:56.365Z,100148.22
2022-11-16T08:04:04.837Z,100145.19
2022-11-16T08:07:09.450Z,100142.41
2022-11-16T08:10:19.145Z,100139.44
2022-11-16T08:13:22.264Z,100138.53
2022-11-16T08:16:25.945Z,100150.16
2022-11-16T08:19:37.519Z,100139.75
2022-11-16T08:22:44.355Z,100144.53
2022-11-16T08:25:47.309Z,100146.16
2022-11-16T08:28:52.199Z,100158.25
2022-11-16T08:32:04.180Z,100145.06
2022-11-16T08:35:08.952Z,100157.94
2022-11-16T08:38:12.148Z,100145.41
2022-11-16T08:41:17.378Z,100152.22
2022-11-16T08:44:21.584Z,100162.34
2022-11-16T08:47:31.432Z,100157.28
2022-11-16T08:50:55.463Z,100150.31
2022-11-16T08:53:59.789Z,100153.28
2022-11-16T08:57:03.646Z,100158.94
2022-11-16T09:00:09.541Z,100138.13
2022-11-16T09:03:12.377Z,100156.94
2022-11-16T09:06:15.249Z,100171.13
2022-11-16T09:09:19.739Z,100172.44
2022-11-16T09:12:22.879Z,100174.16
2022-11-16T09:15:25.529Z,100173.56
2022-11-16T09:18:29.189Z,100164.06
2022-11-16T09:21:36.224Z,100177.78
2022-11-16T09:24:39.121Z,100170.00
2022-11-16T09:27:41.792Z,100164.47
2022-11-16T09:30:45.538Z,100157.19
2022-11-16T09:33:48.635Z,100149.03
2022-11-16T09:36:51.889Z,100158.50
2022-11-16T09:39:55.119Z,100150.88
2022-11-16T09:43:34.793Z,100150.28
2022-11-16T09:46:48.417Z,100143.19
2022-11-16T09:50:02.732Z,100144.22
2022-11-16T09:53:33.305Z,100143.66
2022-11-16T09:56:39.900Z,100141.06
2022-11-16T09:59:50.639Z,100140.91
2022-11-16T10:03:14.031Z,100137.38
2022-11-16T10:06:53.220Z,100137.97
2022-11-16T10:09:56.665Z,100134.97
2022-11-16T10:12:59.120Z,100132.34
2022-11-16T10:16:02.956Z,100132.38
2022-11-16T10:19:17.400Z,100134.59
2022-11-16T10:22:22.721Z,100129.38
2022-11-16T10:25:30.176Z,100137.94
2022-11-16T10:28:54.298Z,100134.38
2022-11-16T10:32:21.326Z,100135.56
2022-11-16T10:35:33.317Z,100135.72
2022-11-16T10:38:36.066Z,100141.94
2022-11-16T10:41:42.956Z,100134.97
2022-11-16T10:44:56.498Z,100131.59
2022-11-16T10:48:08.562Z,100129.97
2022-11-16T10:51:11.598Z,100134.50
2022-11-16T10:54:18.606Z,100130.94
2022-11-16T10:57:24.401Z,100124.09
2022-11-16T11:00:34.772Z,100120.06
2022-11-16T11:03:37.587Z,100122.50
2022-11-16T11:06:41.023Z,100122.44
2022-11-16T11:09:43.713Z,100129.78
2022-11-16T11:13:08.481Z,100127.25
2022-11-16T11:16:17.407Z,100135.66
2022-11-16T11:19:29.954Z,100127.31
2022-11-16T11:23:00.985Z,100130.31
2022-11-16T11:26:03.776Z,100128.91
2022-11-16T11:29:33.942Z,100135.66
2022-11-16T11:32:40.761Z,100121.97
2022-11-16T11:35:43.465Z,100128.41
2022-11-16T11:39:05.237Z,100132.69
2022-11-16T11:42:22.063Z,100139.78
2022-11-16T11:45:53.324Z,100129.44
2022-11-16T11:49:01.935Z,100128.97
2022-11-16T11:52:12.715Z,100143.66
2022-11-16T11:55:18.829Z,100134.78
2022-11-16T11:58:24.387Z,100147.16
2022-11-16T12:01:30.016Z,100135.38
2022-11-16T12:04:55.985Z,100141.03
2022-11-16T12:08:24.092Z,100140.31
2022-11-16T12:11:56.897Z,100128.78
2022-11-16T12:15:08.467Z,100142.84
2022-11-16T12:18:29.629Z,100130.66
2022-11-16T12:21:54.328Z,100138.25
2022-11-16T12:25:27.757Z,100142.94
2022-11-16T12:28:49.842Z,100134.44
2022-11-16T12:32:06.829Z,100132.66
2022-11-16T12:35:46.894Z,100135.56
2022-11-16T12:39:11.239Z,100135.72
2022-11-16T12:42:16.403Z,100132.34
2022-11-16T12:45:44.770Z,100146.59
2022-11-16T12:48:53.114Z,100148.75
2022-11-16T12:52:03.234Z,100144.78
2022-11-16T12:55:25.909Z,100145.72
2022-11-16T12:58:40.768Z,100148.25
2022-11-16T13:02:00.782Z,100136.56
2022-11-16T13:05:05.559Z,100144.41
2022-11-16T13:08:42.037Z,100138.66
2022-11-16T13:11:56.032Z,100146.97
2022-11-16T13:15:01.710Z,100146.63
2022-11-16T13:18:07.533Z,100151.69
2022-11-16T13:21:22.231Z,100145.56
2022-11-16T13:24:27.885Z,100142.53
2022-11-16T13:27:30.404Z,100148.16
2022-11-16T13:31:02.684Z,100146.28
2022-11-16T13:34:15.827Z,100133.94
2022-11-16T13:37:38.664Z,100138.13
2022-11-16T13:40:41.512Z,100136.19
2022-11-16T13:43:49.551Z,100124.81
2022-11-16T13:47:07.733Z,100127.38
2022-11-16T13:50:19.705Z,100136.66
2022-11-16T13:56:51.522Z,100132.22
2022-11-16T14:00:17.406Z,100119.81
2022-11-16T14:03:20.794Z,100129.75
2022-11-16T14:06:23.665Z,100127.38
2022-11-16T14:09:47.597Z,100131.84
2022-11-16T14:12:54.929Z,100132.59
2022-11-16T14:16:17.083Z,100132.94
2022-11-16T14:19:56.358Z,100134.06
2022-11-16T14:23:07.669Z,100142.34
2022-11-16T14:26:41.750Z,100140.63
2022-11-16T14:30:12.712Z,100136.16
2022-11-16T14:33:32.447Z,100136.63
2022-11-16T14:36:43.652Z,100128.72
2022-11-16T14:39:46.628Z,100141.47
2022-11-16T14:43:23.037Z,100121.00
2022-11-16T14:46:35.119Z,100129.75
2022-11-16T14:49:38.467Z,100136.19
2022-11-16T14:52:44.885Z,100135.56
2022-11-16T14:55:47.732Z,100131.78
2022-11-16T14:58:57.042Z,100121.94
2022-11-16T15:02:07.307Z,100131.63
2022-11-16T15:05:17.269Z,100131.66
2022-11-16T15:08:25.067Z,100127.66
2022-11-16T15:12:06.928Z,100140.66
2022-11-16T15:15:16.184Z,100126.91
2022-11-16T15:18:21.063Z,100128.47
2022-11-16T15:21:25.315Z,100110.56
2022-11-16T15:24:31.480Z,100126.16
2022-11-16T15:27:37.828Z,100126.91
2022-11-16T15:30:40.853Z,100137.22
2022-11-16T15:33:45.288Z,100131.53
2022-11-16T15:36:49.309Z,100132.28
2022-11-16T15:39:53.587Z,100127.81
2022-11-16T15:43:01.632Z,100120.06
2022-11-16T15:46:04.600Z,100123.06
2022-11-16T15:49:31.955Z,100120.63
2022-11-16T15:52:46.211Z,100131.78
2022-11-16T15:55:50.706Z,100136.03
2022-11-16T15:58:55.207Z,100130.19
2022-11-16T16:01:58.371Z,100129.31
2022-11-16T16:05:00.834Z,100139.03
2022-11-16T16:08:03.927Z,100138.25
2022-11-16T16:11:09.440Z,100130.41
2022-11-16T16:14:23.431Z,100127.75
2022-11-16T16:17:27.827Z,100127.94
2022-11-16T16:20:32.449Z,100130.13
2022-11-16T16:23:45.861Z,100133.25
2022-11-16T16:26:48.557Z,100130.81
2022-11-16T16:29:57.199Z,100120.69
2022-11-16T16:32:59.719Z,100121.69
2022-11-16T16:36:02.587Z,100136.47
2022-11-16T16:39:04.990Z,100132.44
2022-11-16T16:42:12.817Z,100138.63
2022-11-16T16:45:39.999Z,100140.50
2022-11-16T16:48:44.785Z,100137.91
2022-11-16T16:51:47.309Z,100136.75
2022-11-16T16:54:50.278Z,100129.75
2022-11-16T16:57:56.658Z,100141.31
2022-11-16T17:01:01.482Z,100145.28
2022-11-16T17:04:04.957Z,100133.94
2022-11-16T17:07:08.266Z,100102.66
2022-11-16T17:10:10.668Z,100127.13
2022-11-16T17:13:12.972Z,100132.81
2022-11-16T17:16:16.287Z,100139.25
2022-11-16T17:19:19.000Z,100135.91
2022-11-16T17:22:21.816Z,100137.97
2022-11-16T17:25:24.314Z,100142.44
2022-11-16T17:28:26.865Z,100146.94
2022-11-16T17:31:29.375Z,100129.75
2022-11-16T17:34:32.555Z,100139.97
2022-11-16T17:37:35.223Z,100129.28
2022-11-16T17:40:37.641Z,100134.66
2022-11-16T17:43:40.853Z,100148.50
2022-11-16T17:46:44.492Z,100156.84
2022-11-16T17:49:47.209Z,100132.84
2022-11-16T17:52:49.512Z,100160.69
2022-11-16T17:55:53.938Z,100156.78
2022-11-16T17:59:01.725Z,100168.34
2022-11-16T18:02:03.997Z,100174.00
2022-11-16T18:05:06.659Z,100168.22
2022-11-16T18:08:09.485Z,100166.94
2022-11-16T18:11:16.097Z,100166.94
2022-11-16T18:14:21.278Z,100165.31
2022-11-16T18:17:24.352Z,100166.97
2022-11-16T18:20:30.034Z,100149.13
2022-11-16T18:23:37.492Z,100160.03
2022-11-16T18:26:40.780Z,100165.16
2022-11-16T18:29:43.183Z,100155.97
2022-11-16T18:32:45.765Z,100153.59
2022-11-16T18:35:48.492Z,100167.41
2022-11-16T18:38:52.571Z,100167.63
2022-11-16T18:41:57.831Z,100142.16
2022-11-16T18:45:04.511Z,100173.91
2022-11-16T18:48:07.383Z,100168.22
2022-11-16T18:51:11.989Z,100165.78
2022-11-16T18:54:14.738Z,100158.25
2022-11-16T18:57:17.387Z,100162.38
2022-11-16T19:00:20.117Z,100155.78
2022-11-16T19:03:22.681Z,100160.59
2022-11-16T19:06:25.401Z,100153.25
2022-11-16T19:09:27.988Z,100148.81
2022-11-16T19:12:30.651Z,100146.28
2022-11-16T19:15:34.259Z,100137.59
2022-11-16T19:18:37.555Z,100138.81
2022-11-16T19:21:42.491Z,100142.72
2022-11-16T19:24:45.673Z,100136.38
2022-11-16T19:27:48.403Z,100133.94
2022-11-16T19:30:52.239Z,100136.41
2022-11-16T19:34:05.517Z,100145.59
2022-11-16T19:37:08.856Z,100088.72
2022-11-16T19:40:12.600Z,100138.25
2022-11-16T19:43:16.038Z,100139.53
2022-11-16T19:46:19.121Z,100139.75
2022-11-16T19:49:22.533Z,100153.66
2022-11-16T19:52:25.699Z,100149.78
2022-11-16T19:55:32.057Z,100156.72
2022-11-16T19:58:38.784Z,100158.06
2022-11-16T20:01:41.418Z,100153.13
2022-11-16T20:04:44.555Z,100151.78
2022-11-16T20:07:49.591Z,100164.25
2022-11-16T20:10:51.942Z,100160.28
2022-11-16T20:13:56.127Z,100148.59
2022-11-16T20:16:59.083Z,100162.53
2022-11-16T20:20:01.633Z,100160.59
2022-11-16T20:23:03.939Z,100163.94
2022-11-16T20:26:08.284Z,100162.53
2022-11-16T20:29:14.654Z,100161.41
2022-11-16T20:32:18.164Z,100160.75
2022-11-16T20:35:20.455Z,100158.34
2022-11-16T20:38:22.756Z,100167.19
2022-11-16T20:41:27.552Z,100157.63
2022-11-16T20:44:31.455Z,100158.47
2022-11-16T20:47:35.257Z,100141.09
2022-11-16T20:50:37.849Z,100145.47
2022-11-16T20:53:41.028Z,100154.53
2022-11-16T20:56:44.671Z,100149.56
2022-11-16T20:59:47.333Z,100159.97
2022-11-16T21:02:51.157Z,100161.78
2022-11-16T21:05:56.902Z,100157.41
2022-11-16T21:09:00.048Z,100148.94
2022-11-16T21:12:21.133Z,100162.47
2022-11-16T21:15:24.548Z,100150.44
2022-11-16T21:18:30.681Z,100158.44
2022-11-16T21:21:34.813Z,100155.66
2022-11-16T21:24:37.567Z,100153.66
2022-11-16T21:27:40.389Z,100159.28
2022-11-16T21:30:43.034Z,100161.19
2022-11-16T21:33:46.285Z,100159.78
2022-11-16T21:36:49.871Z,100127.81
2022-11-16T21:39:52.322Z,100156.03
2022-11-16T21:42:54.864Z,100157.84
2022-11-16T21:46:05.673Z,100158.00
2022-11-16T21:49:08.533Z,100152.16
2022-11-16T21:52:11.008Z,100163.94
2022-11-16T21:55:13.496Z,100151.66
2022-11-16T21:58:15.782Z,100162.56
2022-11-16T22:01:18.396Z,100180.56
2022-11-16T22:04:39.716Z,100129.22
2022-11-16T22:07:42.989Z,100157.69
2022-11-16T22:10:51.194Z,100169.19
2022-11-16T22:13:53.924Z,100166.19
2022-11-16T22:16:57.707Z,100173.81
2022-11-16T22:20:00.662Z,100170.63
2022-11-16T22:23:05.733Z,100170.53
2022-11-16T22:26:13.861Z,100164.69
2022-11-16T22:29:17.371Z,100157.09
2022-11-16T22:32:21.302Z,100151.22
2022-11-16T22:35:24.320Z,100133.25
2022-11-16T22:38:27.823Z,100156.78
2022-11-16T22:41:32.300Z,100162.69
2022-11-16T22:44:35.293Z,100168.97
2022-11-16T22:47:39.406Z,100169.91
2022-11-16T22:50:42.607Z,100169.47
2022-11-16T22:53:45.480Z,100175.53
2022-11-16T22:56:48.967Z,100172.75
2022-11-16T22:59:51.597Z,100164.31
2022-11-16T23:02:55.910Z,100171.88
2022-11-16T23:05:59.267Z,100174.56
2022-11-16T23:09:02.014Z,100169.09
2022-11-16T23:12:24.363Z,100173.31
2022-11-16T23:15:49.065Z,100171.75
2022-11-16T23:18:51.941Z,100169.47
2022-11-16T23:22:13.725Z,100161.63
2022-11-16T23:25:34.896Z,100157.22
2022-11-16T23:28:37.727Z,100156.56
2022-11-16T23:31:40.694Z,100155.16
2022-11-16T23:34:43.370Z,100151.50
2022-11-16T23:37:55.364Z,100149.31
2022-11-16T23:40:58.885Z,100131.31
2022-11-16T23:44:05.596Z,100133.41
2022-11-16T23:47:08.748Z,100138.41
2022-11-16T23:50:11.706Z,100130.34
2022-11-16T23:53:14.769Z,100130.19
2022-11-16T23:56:19.206Z,100129.97
2022-11-16T23:59:22.051Z,100135.91
